Time;durP1;ratioP1;P1;durP2;ratioP2;P2;SDS_P1;SDS_P2;PMS_P1;PMS_P2;Temp;Humidity;BMP_temperature;BMP_pressure;BME280_temperature;BME280_humidity;BME280_pressure;Samples;Min_cycle;Max_cycle;Signal;HPM_P1;HPM_P2
2023/07/22 00:00:50;;;;;;;3.53;2.70;;;;;;;;;;5071518;28;20233;-83
2023/07/22 00:03:17;;;;;;;2.90;2.57;;;;;;;;;;5071255;28;20742;-83
2023/07/22 00:05:46;;;;;;;4.43;2.63;;;;;;;;;;5071471;28;20201;-83
2023/07/22 00:08:13;;;;;;;2.50;2.30;;;;;;;;;;5071394;28;20221;-83
2023/07/22 00:10:42;;;;;;;2.93;2.50;;;;;;;;;;5071410;28;20221;-83
2023/07/22 00:13:09;;;;;;;2.47;2.27;;;;;;;;;;5071169;28;20225;-83
2023/07/22 00:15:36;;;;;;;2.57;2.37;;;;;;;;;;5071546;28;20213;-83
2023/07/22 00:18:03;;;;;;;2.90;2.70;;;;;;;;;;5070995;28;20229;-83
2023/07/22 00:20:30;;;;;;;2.63;2.43;;;;;;;;;;5071250;28;20217;-83
2023/07/22 00:22:59;;;;;;;3.20;2.40;;;;;;;;;;5070976;28;20232;-83
2023/07/22 00:25:26;;;;;;;2.97;2.60;;;;;;;;;;5071307;28;20687;-83
2023/07/22 00:27:53;;;;;;;2.87;2.40;;;;;;;;;;5071161;28;20221;-82
2023/07/22 00:30:20;;;;;;;2.70;2.50;;;;;;;;;;5071349;28;20202;-83
2023/07/22 00:32:47;;;;;;;4.70;2.60;;;;;;;;;;5070359;28;20596;-83
2023/07/22 00:35:14;;;;;;;3.10;2.80;;;;;;;;;;5071430;28;20201;-83
2023/07/22 00:37:41;;;;;;;4.53;2.70;;;;;;;;;;5070719;28;20237;-83
2023/07/22 00:40:12;;;;;;;2.87;2.60;;;;;;;;;;5071319;28;20201;-83
2023/07/22 00:42:39;;;;;;;2.83;2.50;;;;;;;;;;5070506;28;20260;-83
2023/07/22 00:45:07;;;;;;;2.93;2.63;;;;;;;;;;5071473;28;20205;-82
2023/07/22 00:47:34;;;;;;;6.27;2.10;;;;;;;;;;5070764;28;20233;-83
2023/07/22 00:50:01;;;;;;;2.90;2.30;;;;;;;;;;5071549;28;20209;-82
2023/07/22 00:52:28;;;;;;;2.90;2.60;;;;;;;;;;5070888;28;20225;-83
2023/07/22 00:54:56;;;;;;;2.83;2.53;;;;;;;;;;5071650;28;20213;-83
2023/07/22 00:57:24;;;;;;;3.33;2.40;;;;;;;;;;5071167;28;20236;-82
2023/07/22 00:59:51;;;;;;;2.80;2.50;;;;;;;;;;5063611;28;20229;-82
2023/07/22 01:02:19;;;;;;;4.10;2.63;;;;;;;;;;5075188;28;20237;-83
2023/07/22 01:04:47;;;;;;;2.40;2.30;;;;;;;;;;5073569;28;20209;-82
2023/07/22 01:07:14;;;;;;;5.87;2.70;;;;;;;;;;5075227;28;20198;-83
2023/07/22 01:09:42;;;;;;;2.53;2.30;;;;;;;;;;5074707;28;20224;-84
2023/07/22 01:12:10;;;;;;;2.20;2.00;;;;;;;;;;5074575;28;20233;-83
2023/07/22 01:14:39;;;;;;;3.43;2.33;;;;;;;;;;5075003;28;20209;-83
2023/07/22 01:17:08;;;;;;;2.20;2.00;;;;;;;;;;5078001;28;20217;-83
2023/07/22 01:19:35;;;;;;;4.17;2.37;;;;;;;;;;5079393;28;20240;-82
2023/07/22 01:22:04;;;;;;;2.93;2.63;;;;;;;;;;5078111;28;20229;-81
2023/07/22 01:24:33;;;;;;;3.33;2.17;;;;;;;;;;5078558;28;20212;-82
2023/07/22 01:27:00;;;;;;;2.17;2.00;;;;;;;;;;5086067;28;20201;-83
2023/07/22 01:29:27;;;;;;;2.47;2.27;;;;;;;;;;5088500;28;20204;-82
2023/07/22 01:31:55;;;;;;;3.57;3.00;;;;;;;;;;5087685;28;20221;-82
2023/07/22 01:34:24;;;;;;;5.40;2.50;;;;;;;;;;5087136;28;20231;-82
2023/07/22 01:36:51;;;;;;;2.40;2.20;;;;;;;;;;5087667;28;20583;-82
2023/07/22 01:39:19;;;;;;;3.60;2.30;;;;;;;;;;5084533;28;20229;-83
2023/07/22 01:41:47;;;;;;;2.83;2.03;;;;;;;;;;5084010;28;20232;-82
2023/07/22 01:44:14;;;;;;;2.70;2.50;;;;;;;;;;5084282;28;20243;-82
2023/07/22 01:46:42;;;;;;;2.83;2.57;;;;;;;;;;5079273;28;20206;-83
2023/07/22 01:49:12;;;;;;;2.80;2.60;;;;;;;;;;5074310;28;20235;-82
2023/07/22 01:51:40;;;;;;;2.67;2.47;;;;;;;;;;5074455;28;20231;-83
2023/07/22 01:54:07;;;;;;;3.20;2.47;;;;;;;;;;5073665;28;20245;-82
2023/07/22 01:56:35;;;;;;;4.50;2.63;;;;;;;;;;5073196;28;20667;-83
2023/07/22 01:59:04;;;;;;;2.80;2.60;;;;;;;;;;5053858;28;20253;-83
2023/07/22 02:01:31;;;;;;;2.80;2.60;;;;;;;;;;5066472;28;20275;-83
2023/07/22 02:03:58;;;;;;;2.93;2.50;;;;;;;;;;5073710;28;20236;-83
2023/07/22 02:06:25;;;;;;;2.90;2.70;;;;;;;;;;5074216;28;20224;-83
2023/07/22 02:08:52;;;;;;;2.67;2.30;;;;;;;;;;5073290;28;20225;-83
2023/07/22 02:11:19;;;;;;;2.87;2.60;;;;;;;;;;5061210;28;20222;-83
2023/07/22 02:13:46;;;;;;;3.33;3.00;;;;;;;;;;5053542;28;20744;-83
2023/07/22 02:16:16;;;;;;;4.17;2.73;;;;;;;;;;5054037;28;20210;-83
2023/07/22 02:18:43;;;;;;;3.13;2.90;;;;;;;;;;5053511;28;20258;-83
2023/07/22 02:21:10;;;;;;;2.57;2.37;;;;;;;;;;5053743;28;20230;-83
2023/07/22 02:23:37;;;;;;;3.27;2.90;;;;;;;;;;5053347;28;20260;-83
2023/07/22 02:26:04;;;;;;;3.23;2.93;;;;;;;;;;5053877;28;20210;-83
2023/07/22 02:28:32;;;;;;;2.83;2.63;;;;;;;;;;5053349;28;20244;-83
2023/07/22 02:31:02;;;;;;;3.13;2.90;;;;;;;;;;5064830;28;20248;-83
2023/07/22 02:33:31;;;;;;;3.33;2.87;;;;;;;;;;5073203;28;20666;-83
2023/07/22 02:35:58;;;;;;;3.17;2.87;;;;;;;;;;5073671;28;20202;-83
2023/07/22 02:38:25;;;;;;;3.63;2.97;;;;;;;;;;5073441;28;20237;-83
2023/07/22 02:40:52;;;;;;;4.10;2.60;;;;;;;;;;5073820;28;20248;-83
2023/07/22 02:43:19;;;;;;;3.77;2.70;;;;;;;;;;5073819;28;20762;-83
2023/07/22 02:45:46;;;;;;;3.03;2.73;;;;;;;;;;5073666;28;20574;-82
2023/07/22 02:48:13;;;;;;;3.57;2.93;;;;;;;;;;5073470;28;20242;-83
2023/07/22 02:50:42;;;;;;;3.87;2.77;;;;;;;;;;5073749;28;20231;-82
2023/07/22 02:53:09;;;;;;;2.73;2.53;;;;;;;;;;5078577;28;20297;-82
2023/07/22 02:55:36;;;;;;;3.60;2.93;;;;;;;;;;5076186;28;20216;-83
2023/07/22 02:58:04;;;;;;;3.40;3.10;;;;;;;;;;5075340;28;20232;-82
2023/07/22 03:00:32;;;;;;;3.47;3.17;;;;;;;;;;5075093;28;20225;-82
2023/07/22 03:03:00;;;;;;;3.27;2.97;;;;;;;;;;5074758;28;20241;-83
2023/07/22 03:05:28;;;;;;;3.40;3.10;;;;;;;;;;5078069;28;20485;-82
2023/07/22 03:07:56;;;;;;;3.17;2.87;;;;;;;;;;5076650;28;20241;-83
2023/07/22 03:10:25;;;;;;;3.47;3.17;;;;;;;;;;5073423;28;20248;-83
2023/07/22 03:12:55;;;;;;;4.17;2.87;;;;;;;;;;5072464;28;20320;-83
2023/07/22 03:15:22;;;;;;;2.80;2.60;;;;;;;;;;5072901;28;20197;-83
2023/07/22 03:17:49;;;;;;;2.80;2.60;;;;;;;;;;5055594;28;20630;-82
2023/07/22 03:20:18;;;;;;;3.03;2.77;;;;;;;;;;5053104;28;20439;-82
2023/07/22 03:22:45;;;;;;;3.63;3.00;;;;;;;;;;5051393;28;20264;-83
2023/07/22 03:25:16;;;;;;;3.53;3.23;;;;;;;;;;5053237;28;20201;-82
2023/07/22 03:27:44;;;;;;;3.37;3.07;;;;;;;;;;5070489;28;20319;-82
2023/07/22 03:30:14;;;;;;;5.17;3.27;;;;;;;;;;5072709;28;20201;-82
2023/07/22 03:32:42;;;;;;;5.07;3.63;;;;;;;;;;5072121;28;20642;-82
2023/07/22 03:35:10;;;;;;;6.37;3.07;;;;;;;;;;5072363;28;20256;-82
2023/07/22 03:37:37;;;;;;;3.37;3.07;;;;;;;;;;5072253;28;20702;-82
2023/07/22 03:40:07;;;;;;;3.70;2.87;;;;;;;;;;5071698;28;20268;-82
2023/07/22 03:42:35;;;;;;;11.70;3.87;;;;;;;;;;5072154;28;20232;-83
2023/07/22 03:45:02;;;;;;;5.97;2.90;;;;;;;;;;5072260;28;20237;-82
2023/07/22 03:47:29;;;;;;;3.57;3.27;;;;;;;;;;5072230;28;20236;-82
2023/07/22 03:49:56;;;;;;;3.43;3.03;;;;;;;;;;5072411;28;20205;-82
2023/07/22 03:52:25;;;;;;;4.10;3.43;;;;;;;;;;5072583;28;20232;-83
2023/07/22 03:54:52;;;;;;;3.10;2.80;;;;;;;;;;5073103;28;20205;-83
2023/07/22 03:57:19;;;;;;;4.10;3.37;;;;;;;;;;5073394;28;20233;-83
2023/07/22 03:59:47;;;;;;;4.00;3.00;;;;;;;;;;5072616;28;20316;-83
2023/07/22 06:43:43;;;;;;;3.37;3.07;;;;;;;;;;5056178;28;20205;-86
2023/07/22 06:46:11;;;;;;;4.93;3.40;;;;;;;;;;5055007;28;20257;-87
2023/07/22 06:48:38;;;;;;;4.03;3.17;;;;;;;;;;5051110;28;20264;-86
2023/07/22 06:51:05;;;;;;;3.47;3.17;;;;;;;;;;5055361;28;20233;-84
2023/07/22 06:53:32;;;;;;;4.60;3.42;;;;;;;;;;5070665;28;20229;-84
2023/07/22 06:55:59;;;;;;;6.85;3.75;;;;;;;;;;5056133;28;20224;-84
2023/07/22 06:58:27;;;;;;;4.05;2.72;;;;;;;;;;5054389;28;20335;-83
2023/07/22 07:00:55;;;;;;;3.28;3.00;;;;;;;;;;5055966;28;20234;-85
2023/07/22 07:03:24;;;;;;;3.47;2.92;;;;;;;;;;5055261;28;20240;-85
2023/07/22 07:05:53;;;;;;;3.55;3.25;;;;;;;;;;5055975;28;20206;-85
2023/07/22 07:08:20;;;;;;;2.97;2.78;;;;;;;;;;5057005;28;20241;-85
2023/07/22 07:10:47;;;;;;;4.50;2.90;;;;;;;;;;5055916;28;20217;-84
2023/07/22 07:13:14;;;;;;;3.95;2.72;;;;;;;;;;5055910;28;20416;-84
2023/07/22 07:15:41;;;;;;;2.47;2.28;;;;;;;;;;5055710;28;20217;-84
2023/07/22 07:18:09;;;;;;;5.65;2.63;;;;;;;;;;5056004;28;20234;-83
2023/07/22 07:20:37;;;;;;;2.83;2.38;;;;;;;;;;5057222;28;20229;-84
2023/07/22 07:23:04;;;;;;;2.65;2.45;;;;;;;;;;5055541;28;20229;-85
2023/07/22 07:25:31;;;;;;;2.65;2.45;;;;;;;;;;5055006;28;20581;-85
2023/07/22 07:27:58;;;;;;;4.35;3.92;;;;;;;;;;5054487;28;20230;-84
2023/07/22 07:30:25;;;;;;;3.30;2.85;;;;;;;;;;5055172;28;20221;-84
2023/07/22 07:32:52;;;;;;;3.90;2.75;;;;;;;;;;5054000;28;20313;-85
2023/07/22 07:35:20;;;;;;;5.47;2.60;;;;;;;;;;5055307;28;20628;-85
2023/07/22 07:37:48;;;;;;;3.55;2.25;;;;;;;;;;5054574;28;20703;-85
2023/07/22 07:40:15;;;;;;;3.85;2.80;;;;;;;;;;5055263;28;20218;-85
2023/07/22 07:42:42;;;;;;;3.58;2.60;;;;;;;;;;5055103;28;20249;-85
2023/07/22 07:45:10;;;;;;;2.85;2.50;;;;;;;;;;5055349;28;20221;-85
2023/07/22 07:47:37;;;;;;;3.67;2.72;;;;;;;;;;5061615;28;20507;-85
2023/07/22 07:50:04;;;;;;;3.05;2.72;;;;;;;;;;5075678;28;20201;-85
2023/07/22 07:52:32;;;;;;;3.67;2.40;;;;;;;;;;5074873;28;20237;-85
2023/07/22 07:55:00;;;;;;;2.72;2.47;;;;;;;;;;5075752;28;20209;-86
2023/07/22 07:57:27;;;;;;;2.85;2.63;;;;;;;;;;5075311;28;20596;-86
2023/07/22 07:59:54;;;;;;;3.75;2.90;;;;;;;;;;5076649;28;20232;-87
2023/07/22 08:02:22;;;;;;;2.97;2.40;;;;;;;;;;5075367;28;20244;-86
2023/07/22 08:04:49;;;;;;;2.80;2.40;;;;;;;;;;5075756;28;20209;-83
2023/07/22 08:07:17;;;;;;;2.65;2.45;;;;;;;;;;5071708;28;20233;-84
2023/07/22 08:09:48;;;;;;;3.38;2.45;;;;;;;;;;5072795;28;20296;-84
2023/07/22 08:12:18;;;;;;;2.85;2.33;;;;;;;;;;5071552;28;20237;-84
2023/07/22 08:14:45;;;;;;;2.50;2.30;;;;;;;;;;5072759;28;20308;-83
2023/07/22 08:17:12;;;;;;;2.58;2.38;;;;;;;;;;5072832;28;20319;-85
2023/07/22 08:19:39;;;;;;;3.13;2.53;;;;;;;;;;5073255;28;20229;-84
2023/07/22 08:22:07;;;;;;;2.75;2.55;;;;;;;;;;5072727;28;20229;-84
2023/07/22 08:24:34;;;;;;;3.20;2.63;;;;;;;;;;5072709;28;20259;-83
2023/07/22 08:27:01;;;;;;;2.70;2.50;;;;;;;;;;5072554;28;20205;-84
2023/07/22 08:29:29;;;;;;;3.03;2.20;;;;;;;;;;5072789;28;20216;-84
2023/07/22 08:31:56;;;;;;;3.60;2.55;;;;;;;;;;5071214;28;20947;-83
2023/07/22 08:34:23;;;;;;;6.28;2.50;;;;;;;;;;5067705;28;20195;-85
2023/07/22 08:36:50;;;;;;;5.35;2.65;;;;;;;;;;5053527;28;20206;-85
2023/07/22 08:39:17;;;;;;;2.90;2.40;;;;;;;;;;5053982;28;20229;-85
2023/07/22 08:41:48;;;;;;;3.58;2.40;;;;;;;;;;5053552;28;20226;-85
2023/07/22 08:44:15;;;;;;;3.38;2.17;;;;;;;;;;5053023;28;20264;-85
2023/07/22 08:46:44;;;;;;;5.40;2.67;;;;;;;;;;5054176;28;20225;-85
2023/07/22 08:49:11;;;;;;;2.22;2.03;;;;;;;;;;5052759;28;20241;-82
2023/07/22 08:51:39;;;;;;;3.05;2.67;;;;;;;;;;5053855;28;20233;-84
2023/07/22 08:54:07;;;;;;;4.38;2.72;;;;;;;;;;5052103;28;20233;-84
2023/07/22 08:56:34;;;;;;;5.50;2.50;;;;;;;;;;5049939;28;20234;-85
2023/07/22 08:59:02;;;;;;;3.70;2.88;;;;;;;;;;5072878;28;20582;-84
2023/07/22 09:01:29;;;;;;;2.40;2.20;;;;;;;;;;5073690;28;20268;-85
2023/07/22 09:03:58;;;;;;;2.65;2.28;;;;;;;;;;5073611;28;20244;-84
2023/07/22 09:06:25;;;;;;;3.42;3.13;;;;;;;;;;5072498;28;20205;-83
2023/07/22 09:08:53;;;;;;;3.00;2.67;;;;;;;;;;5071747;28;20242;-84
2023/07/22 09:11:21;;;;;;;5.53;2.53;;;;;;;;;;5062426;28;20226;-82
2023/07/22 09:13:48;;;;;;;3.88;2.67;;;;;;;;;;5074458;28;20243;-83
2023/07/22 09:16:17;;;;;;;2.42;2.20;;;;;;;;;;5068056;28;20208;-83
2023/07/22 09:18:44;;;;;;;3.38;2.40;;;;;;;;;;5059992;28;20233;-85
2023/07/22 09:21:12;;;;;;;4.88;2.67;;;;;;;;;;5073104;28;20234;-84
2023/07/22 09:23:40;;;;;;;3.17;2.30;;;;;;;;;;5075567;28;20252;-85
2023/07/22 09:26:11;;;;;;;3.50;2.28;;;;;;;;;;5075362;28;20212;-84
2023/07/22 09:28:51;;;;;;;2.50;2.30;;;;;;;;;;5071927;28;20295;-84
2023/07/22 09:31:18;;;;;;;6.70;2.55;;;;;;;;;;5072395;28;20223;-84
2023/07/22 09:33:45;;;;;;;2.47;2.28;;;;;;;;;;5078032;28;20229;-85
2023/07/22 09:36:14;;;;;;;6.15;2.60;;;;;;;;;;5074910;28;20210;-84
2023/07/22 09:38:41;;;;;;;6.25;2.45;;;;;;;;;;5090939;28;20232;-84
2023/07/22 09:41:08;;;;;;;2.63;2.22;;;;;;;;;;5095984;28;20236;-84
2023/07/22 09:43:38;;;;;;;2.47;2.28;;;;;;;;;;5081058;28;20347;-85
2023/07/22 09:46:09;;;;;;;2.42;2.22;;;;;;;;;;5074571;28;20213;-85
2023/07/22 09:48:43;;;;;;;4.18;2.50;;;;;;;;;;5076982;28;20291;-84
2023/07/22 09:51:15;;;;;;;2.45;2.25;;;;;;;;;;5084932;28;20217;-85
2023/07/22 09:53:48;;;;;;;2.05;1.92;;;;;;;;;;5079964;28;20224;-85
2023/07/22 09:56:15;;;;;;;3.08;2.03;;;;;;;;;;5083741;28;20201;-86
2023/07/22 09:58:43;;;;;;;2.83;2.40;;;;;;;;;;5074161;28;20237;-86
2023/07/22 10:01:11;;;;;;;2.22;1.90;;;;;;;;;;5075850;28;20240;-85
2023/07/22 10:03:39;;;;;;;2.50;2.20;;;;;;;;;;5073122;28;20237;-83
2023/07/22 10:06:07;;;;;;;4.43;2.70;;;;;;;;;;5073461;28;20911;-83
2023/07/22 10:08:37;;;;;;;3.08;2.22;;;;;;;;;;5072867;28;20237;-83
2023/07/22 10:11:07;;;;;;;4.32;2.22;;;;;;;;;;5073137;28;20625;-83
2023/07/22 10:13:34;;;;;;;2.20;2.00;;;;;;;;;;5072793;28;21005;-83
2023/07/22 10:16:02;;;;;;;2.67;2.45;;;;;;;;;;5072512;28;20663;-83
2023/07/22 10:18:30;;;;;;;2.47;2.10;;;;;;;;;;5072671;28;20320;-83
2023/07/22 10:20:58;;;;;;;2.85;2.00;;;;;;;;;;5072736;28;20225;-83
2023/07/22 10:23:26;;;;;;;2.67;2.47;;;;;;;;;;5072476;28;20302;-84
2023/07/22 10:25:55;;;;;;;5.75;2.30;;;;;;;;;;5072856;28;20216;-83
2023/07/22 10:28:23;;;;;;;2.20;2.00;;;;;;;;;;5071971;28;20240;-83
2023/07/22 10:30:51;;;;;;;4.50;2.35;;;;;;;;;;5072517;28;20205;-84
2023/07/22 10:33:18;;;;;;;3.08;2.25;;;;;;;;;;5080046;28;20241;-83
2023/07/22 10:36:03;;;;;;;1.90;1.80;;;;;;;;;;5072656;28;20205;-83
2023/07/22 10:38:32;;;;;;;2.85;2.10;;;;;;;;;;5071609;28;20229;-83
2023/07/22 10:41:00;;;;;;;2.55;2.00;;;;;;;;;;5073135;28;20225;-82
2023/07/22 10:43:28;;;;;;;3.58;2.05;;;;;;;;;;5071883;28;20239;-82
2023/07/22 10:45:56;;;;;;;5.97;2.42;;;;;;;;;;5072322;28;20822;-83
2023/07/22 10:48:24;;;;;;;3.10;1.90;;;;;;;;;;5066585;28;20287;-83
2023/07/22 10:50:52;;;;;;;2.13;1.80;;;;;;;;;;5072656;28;20206;-82
2023/07/22 10:53:22;;;;;;;2.63;2.17;;;;;;;;;;5071919;28;20255;-83
2023/07/22 10:56:13;;;;;;;2.47;2.20;;;;;;;;;;5080608;28;20201;-82
2023/07/22 10:58:59;;;;;;;2.90;1.98;;;;;;;;;;5068093;28;20243;-81
2023/07/22 11:01:32;;;;;;;2.22;2.03;;;;;;;;;;5064317;28;20236;-82
2023/07/22 11:04:11;;;;;;;2.95;2.42;;;;;;;;;;5071710;28;20710;-81
2023/07/22 11:06:39;;;;;;;2.78;2.30;;;;;;;;;;5071372;28;20210;-82
2023/07/22 11:09:06;;;;;;;4.18;2.10;;;;;;;;;;5063067;28;20232;-84
2023/07/22 11:11:38;;;;;;;3.75;2.42;;;;;;;;;;5072678;28;20373;-85
2023/07/22 11:14:15;;;;;;;94.75;10.40;;;;;;;;;;5068663;28;20257;-85
2023/07/22 11:16:43;;;;;;;8.05;2.20;;;;;;;;;;5071707;28;20809;-84
2023/07/22 11:19:10;;;;;;;4.60;2.67;;;;;;;;;;5070779;28;20240;-84
2023/07/22 11:21:38;;;;;;;17.83;4.63;;;;;;;;;;5072081;28;20237;-83
2023/07/22 11:24:05;;;;;;;2.75;2.30;;;;;;;;;;5073004;28;20233;-86
2023/07/22 11:26:32;;;;;;;3.35;3.05;;;;;;;;;;5074707;28;20235;-86
2023/07/22 11:29:01;;;;;;;2.83;2.30;;;;;;;;;;5075011;28;20262;-86
2023/07/22 11:31:32;;;;;;;3.40;2.40;;;;;;;;;;5075072;28;20290;-87
2023/07/22 11:33:59;;;;;;;4.72;2.50;;;;;;;;;;5075426;28;20714;-85
2023/07/22 11:36:26;;;;;;;2.22;1.95;;;;;;;;;;5082396;28;20205;-86
2023/07/22 11:38:55;;;;;;;4.57;2.72;;;;;;;;;;5082801;28;20312;-85
2023/07/22 11:41:22;;;;;;;3.60;2.45;;;;;;;;;;5074690;28;20233;-85
2023/07/22 11:43:49;;;;;;;4.05;2.08;;;;;;;;;;5076064;28;20241;-86
2023/07/22 11:46:18;;;;;;;2.47;2.28;;;;;;;;;;5094591;28;20315;-86
2023/07/22 11:48:52;;;;;;;3.35;2.47;;;;;;;;;;5080343;28;20253;-85
2023/07/22 11:51:19;;;;;;;2.90;2.60;;;;;;;;;;5075624;28;20221;-87
2023/07/22 11:53:48;;;;;;;3.00;2.28;;;;;;;;;;5074321;28;20701;-87
2023/07/22 11:56:19;;;;;;;2.90;2.38;;;;;;;;;;5073223;28;20977;-86
2023/07/22 11:58:49;;;;;;;4.82;2.53;;;;;;;;;;5074803;28;20240;-85
2023/07/22 12:01:18;;;;;;;4.95;2.45;;;;;;;;;;5076126;28;20237;-85
2023/07/22 12:03:45;;;;;;;4.43;2.70;;;;;;;;;;5077363;28;20244;-86
2023/07/22 12:06:12;;;;;;;3.75;2.33;;;;;;;;;;5079804;28;20213;-87
2023/07/22 12:08:44;;;;;;;4.80;2.50;;;;;;;;;;5077447;28;20605;-87
2023/07/22 12:11:17;;;;;;;2.45;2.20;;;;;;;;;;5080386;28;20229;-89
2023/07/22 12:13:46;;;;;;;4.20;2.38;;;;;;;;;;5080854;28;20710;-88
2023/07/22 12:16:13;;;;;;;6.45;2.60;;;;;;;;;;5082179;28;20229;-90
2023/07/22 12:18:45;;;;;;;2.85;2.50;;;;;;;;;;5081313;28;20296;-89
2023/07/22 12:21:13;;;;;;;5.20;2.30;;;;;;;;;;5079089;28;20224;-88
2023/07/22 12:23:40;;;;;;;3.00;2.40;;;;;;;;;;5084871;28;20212;-84
2023/07/22 12:26:07;;;;;;;3.55;2.30;;;;;;;;;;5081351;28;20213;-88
2023/07/22 12:28:35;;;;;;;2.67;2.20;;;;;;;;;;5079554;28;20293;-90
2023/07/22 12:31:02;;;;;;;3.25;2.47;;;;;;;;;;5078086;28;20228;-87
2023/07/22 12:33:29;;;;;;;3.30;2.63;;;;;;;;;;5089437;28;20228;-89
2023/07/22 12:35:58;;;;;;;2.75;2.55;;;;;;;;;;5083905;28;20300;-89
2023/07/22 12:38:25;;;;;;;2.97;2.67;;;;;;;;;;5078693;28;20237;-86
2023/07/22 12:40:55;;;;;;;2.45;2.25;;;;;;;;;;5081049;28;20213;-88
2023/07/22 12:43:23;;;;;;;3.33;2.30;;;;;;;;;;5082583;28;20327;-86
2023/07/22 12:45:50;;;;;;;2.95;2.13;;;;;;;;;;5079123;28;20729;-85
2023/07/22 12:48:17;;;;;;;2.53;1.95;;;;;;;;;;5088490;28;20302;-92
2023/07/22 12:50:45;;;;;;;2.22;2.03;;;;;;;;;;5081944;28;20235;-90
2023/07/22 12:53:13;;;;;;;2.17;1.85;;;;;;;;;;5080415;28;20237;-88
2023/07/22 12:55:40;;;;;;;3.05;2.65;;;;;;;;;;5088133;28;20208;-95
2023/07/22 12:58:07;;;;;;;2.50;2.30;;;;;;;;;;5085515;28;20243;-91
2023/07/22 13:00:34;;;;;;;4.53;2.65;;;;;;;;;;5085239;28;20296;-89
2023/07/22 13:03:02;;;;;;;2.88;2.08;;;;;;;;;;5083966;28;20255;-87
2023/07/22 13:05:29;;;;;;;3.10;2.55;;;;;;;;;;5085468;28;20197;-89
2023/07/22 13:07:58;;;;;;;5.20;2.15;;;;;;;;;;5086429;28;20255;-92
2023/07/22 13:10:28;;;;;;;3.30;2.30;;;;;;;;;;5093673;28;20212;-91
2023/07/22 13:12:55;;;;;;;5.13;2.80;;;;;;;;;;5084453;28;20233;-87
2023/07/22 13:15:22;;;;;;;4.22;2.30;;;;;;;;;;5083681;28;20216;-89
2023/07/22 13:17:49;;;;;;;2.83;2.13;;;;;;;;;;5081777;28;20236;-88
2023/07/22 13:20:17;;;;;;;5.05;2.65;;;;;;;;;;5085290;28;20212;-89
2023/07/22 13:22:44;;;;;;;4.95;2.70;;;;;;;;;;5084197;28;20256;-86
2023/07/22 13:25:11;;;;;;;2.53;2.33;;;;;;;;;;5081962;28;20370;-87
2023/07/22 13:27:40;;;;;;;4.25;2.10;;;;;;;;;;5086235;28;20220;-89
2023/07/22 13:30:08;;;;;;;3.13;2.20;;;;;;;;;;5100613;28;20228;-84
2023/07/22 13:32:35;;;;;;;2.67;2.30;;;;;;;;;;5074301;28;20328;-87
2023/07/22 13:35:03;;;;;;;2.42;2.22;;;;;;;;;;5090050;28;20208;-88
2023/07/22 13:37:31;;;;;;;2.78;2.05;;;;;;;;;;5081240;28;20233;-87
2023/07/22 13:39:58;;;;;;;4.43;1.90;;;;;;;;;;5080635;28;20231;-86
2023/07/22 13:42:25;;;;;;;4.82;2.30;;;;;;;;;;5076650;28;20894;-84
2023/07/22 13:44:53;;;;;;;2.53;1.95;;;;;;;;;;5081231;28;20224;-86
2023/07/22 13:47:21;;;;;;;4.50;1.98;;;;;;;;;;5083560;28;20237;-89
2023/07/22 13:49:48;;;;;;;2.70;1.83;;;;;;;;;;5086701;28;20221;-88
2023/07/22 13:52:15;;;;;;;2.25;1.75;;;;;;;;;;5094758;28;20236;-89
2023/07/22 13:54:42;;;;;;;2.20;2.00;;;;;;;;;;5088858;28;20198;-89
2023/07/22 13:57:09;;;;;;;3.55;2.30;;;;;;;;;;5082489;28;20216;-86
2023/07/22 13:59:36;;;;;;;2.65;2.20;;;;;;;;;;5087621;28;20202;-86
2023/07/22 14:02:05;;;;;;;2.65;2.00;;;;;;;;;;5078454;28;20241;-85
2023/07/22 14:04:32;;;;;;;3.67;2.67;;;;;;;;;;5061696;28;20221;-84
2023/07/22 14:06:59;;;;;;;3.20;2.50;;;;;;;;;;5074885;28;20209;-87
2023/07/22 14:09:26;;;;;;;2.75;2.00;;;;;;;;;;5098517;28;20201;-86
2023/07/22 14:11:53;;;;;;;2.95;2.10;;;;;;;;;;5083700;28;20602;-87
2023/07/22 14:14:28;;;;;;;2.40;2.03;;;;;;;;;;5078611;28;20208;-85
2023/07/22 14:16:55;;;;;;;2.53;2.00;;;;;;;;;;5088494;28;20264;-89
2023/07/22 14:19:24;;;;;;;5.82;2.17;;;;;;;;;;5081917;28;20255;-87
2023/07/22 14:21:51;;;;;;;2.78;2.00;;;;;;;;;;5080549;28;20229;-88
2023/07/22 14:24:19;;;;;;;3.05;2.28;;;;;;;;;;5080050;28;20678;-88
2023/07/22 14:26:47;;;;;;;2.75;2.55;;;;;;;;;;5079789;28;20263;-87
2023/07/22 14:29:14;;;;;;;4.07;2.10;;;;;;;;;;5088215;28;20726;-87
2023/07/22 14:31:43;;;;;;;4.22;2.15;;;;;;;;;;5088434;28;20204;-87
2023/07/22 14:34:10;;;;;;;2.67;2.10;;;;;;;;;;5076095;28;20236;-86
2023/07/22 14:36:39;;;;;;;3.40;2.40;;;;;;;;;;5078978;28;20213;-86
2023/07/22 14:39:06;;;;;;;2.50;2.30;;;;;;;;;;5079781;28;20613;-86
2023/07/22 14:41:33;;;;;;;4.70;2.05;;;;;;;;;;5077123;28;20237;-85
2023/07/22 14:44:00;;;;;;;3.70;2.65;;;;;;;;;;5075673;28;20305;-82
2023/07/22 14:46:27;;;;;;;4.22;2.30;;;;;;;;;;5074459;28;20584;-86
2023/07/22 14:48:54;;;;;;;4.57;2.00;;;;;;;;;;5075120;28;20236;-86
2023/07/22 14:51:22;;;;;;;3.13;2.60;;;;;;;;;;5086104;28;20217;-87
2023/07/22 14:53:51;;;;;;;2.65;2.45;;;;;;;;;;5079147;28;20704;-87
2023/07/22 14:56:18;;;;;;;4.40;2.58;;;;;;;;;;5079465;28;20201;-87
2023/07/22 14:58:45;;;;;;;4.30;2.20;;;;;;;;;;5077996;28;20601;-86
2023/07/22 15:01:12;;;;;;;3.78;3.05;;;;;;;;;;5078920;28;20224;-87
2023/07/22 15:03:40;;;;;;;2.65;2.45;;;;;;;;;;5083132;28;20233;-86
2023/07/22 15:06:07;;;;;;;2.90;2.40;;;;;;;;;;5083399;28;20223;-88
2023/07/22 15:08:34;;;;;;;4.30;2.53;;;;;;;;;;5081039;28;20315;-88
2023/07/22 15:11:02;;;;;;;4.57;2.63;;;;;;;;;;5083868;28;20224;-87
2023/07/22 15:13:29;;;;;;;2.47;2.20;;;;;;;;;;5089362;28;20229;-84
2023/07/22 15:15:57;;;;;;;2.75;2.47;;;;;;;;;;5072190;28;20889;-84
2023/07/22 15:18:24;;;;;;;3.67;2.47;;;;;;;;;;5078775;28;20232;-85
2023/07/22 15:20:51;;;;;;;2.92;2.28;;;;;;;;;;5073816;28;20205;-84
2023/07/22 15:23:19;;;;;;;4.90;2.50;;;;;;;;;;5079426;28;20412;-83
2023/07/22 15:25:46;;;;;;;2.90;2.60;;;;;;;;;;5080209;28;20207;-85
2023/07/22 15:28:14;;;;;;;5.47;2.38;;;;;;;;;;5080673;28;20229;-84
2023/07/22 15:30:44;;;;;;;4.25;2.30;;;;;;;;;;5089575;28;20201;-85
2023/07/22 15:33:11;;;;;;;3.28;2.63;;;;;;;;;;5071775;28;20225;-85
2023/07/22 15:35:38;;;;;;;3.72;2.38;;;;;;;;;;5078238;28;20185;-85
2023/07/22 15:38:05;;;;;;;4.43;2.65;;;;;;;;;;5076708;28;20253;-85
2023/07/22 15:40:36;;;;;;;2.88;2.58;;;;;;;;;;5076969;28;20212;-85
2023/07/22 15:43:03;;;;;;;4.05;2.33;;;;;;;;;;5073947;28;20232;-84
2023/07/22 15:45:31;;;;;;;3.40;2.20;;;;;;;;;;5070763;28;20220;-84
2023/07/22 15:47:59;;;;;;;4.07;2.60;;;;;;;;;;5080116;28;20229;-83
2023/07/22 15:50:26;;;;;;;3.15;2.70;;;;;;;;;;5071828;28;20667;-83
2023/07/22 15:52:54;;;;;;;3.72;2.92;;;;;;;;;;5074991;28;20228;-83
2023/07/22 15:55:22;;;;;;;4.57;2.92;;;;;;;;;;5071727;28;20201;-83
2023/07/22 15:57:49;;;;;;;2.90;2.70;;;;;;;;;;5077212;28;20285;-82
2023/07/22 16:00:16;;;;;;;3.75;2.83;;;;;;;;;;5090945;28;20216;-85
2023/07/22 16:02:44;;;;;;;3.15;2.85;;;;;;;;;;5071277;28;20234;-82
2023/07/22 16:05:11;;;;;;;5.93;3.00;;;;;;;;;;5072074;28;20198;-83
2023/07/22 16:07:39;;;;;;;3.22;2.83;;;;;;;;;;5074094;28;20678;-83
2023/07/22 16:10:07;;;;;;;3.40;3.00;;;;;;;;;;5083879;28;21129;-84
2023/07/22 16:12:34;;;;;;;4.47;2.80;;;;;;;;;;5070463;28;20237;-84
2023/07/22 16:15:04;;;;;;;5.45;2.70;;;;;;;;;;5072397;28;20206;-83
2023/07/22 16:17:32;;;;;;;7.80;3.20;;;;;;;;;;5070312;28;20359;-84
2023/07/22 16:20:00;;;;;;;5.45;2.80;;;;;;;;;;5070558;28;20251;-83
2023/07/22 16:22:27;;;;;;;4.18;3.05;;;;;;;;;;5071997;28;20257;-83
2023/07/22 16:24:54;;;;;;;5.90;3.22;;;;;;;;;;5070790;28;20729;-84
2023/07/22 16:27:21;;;;;;;3.67;2.70;;;;;;;;;;5070765;28;20229;-83
2023/07/22 16:29:48;;;;;;;4.15;3.30;;;;;;;;;;5071874;28;20201;-84
2023/07/22 16:32:15;;;;;;;3.30;2.95;;;;;;;;;;5079463;28;20239;-83
2023/07/22 16:34:42;;;;;;;5.50;3.60;;;;;;;;;;5071164;28;20208;-84
2023/07/22 16:37:11;;;;;;;6.43;4.43;;;;;;;;;;5078150;28;20205;-85
2023/07/22 16:39:38;;;;;;;3.30;3.00;;;;;;;;;;5072832;28;20582;-84
2023/07/22 16:42:06;;;;;;;4.25;3.28;;;;;;;;;;5072817;28;20221;-84
2023/07/22 16:44:33;;;;;;;5.28;3.22;;;;;;;;;;5069338;28;20205;-84
2023/07/22 16:47:00;;;;;;;4.63;3.33;;;;;;;;;;5066144;28;20216;-83
2023/07/22 16:49:28;;;;;;;3.92;3.15;;;;;;;;;;5071998;28;20201;-86
2023/07/22 16:51:55;;;;;;;5.88;3.60;;;;;;;;;;5076501;28;20726;-84
2023/07/22 16:54:25;;;;;;;7.85;3.30;;;;;;;;;;5075326;28;20201;-84
2023/07/22 16:56:52;;;;;;;3.72;3.40;;;;;;;;;;5074688;28;20204;-84
2023/07/22 16:59:19;;;;;;;4.95;3.42;;;;;;;;;;5076232;28;20252;-85
2023/07/22 17:01:46;;;;;;;6.10;3.33;;;;;;;;;;5071786;28;20229;-85
2023/07/22 17:04:13;;;;;;;4.03;3.13;;;;;;;;;;5072238;28;20591;-85
2023/07/22 17:06:40;;;;;;;11.25;7.72;;;;;;;;;;5075350;28;20209;-85
2023/07/22 17:09:07;;;;;;;3.58;2.75;;;;;;;;;;5079926;28;20225;-86
2023/07/22 17:11:36;;;;;;;4.15;3.30;;;;;;;;;;5072122;28;20225;-84
2023/07/22 17:14:03;;;;;;;5.10;3.30;;;;;;;;;;5070790;28;20225;-82
2023/07/22 17:16:32;;;;;;;4.03;3.35;;;;;;;;;;5070079;28;20205;-80
2023/07/22 17:18:59;;;;;;;7.70;3.40;;;;;;;;;;5069263;28;20229;-80
2023/07/22 17:21:26;;;;;;;3.65;2.92;;;;;;;;;;5069278;28;20695;-81
2023/07/22 17:23:53;;;;;;;16.15;14.85;;;;;;;;;;5070013;28;20231;-81
2023/07/22 17:26:20;;;;;;;266.60;237.93;;;;;;;;;;5069473;28;20710;-81
2023/07/22 17:28:49;;;;;;;46.67;42.15;;;;;;;;;;5069099;28;20225;-81